Time;durP1;ratioP1;P1;durP2;ratioP2;P2;SDS_P1;SDS_P2;PMS_P1;PMS_P2;Temp;Humidity;BMP_temperature;BMP_pressure;BME280_temperature;BME280_humidity;BME280_pressure;Samples;Min_cycle;Max_cycle;Signal;HPM_P1;HPM_P2
2023/05/25 00:01:34;;;;;;;1999.90;999.90;;;;;;;21.10;41.85;102709.44;5067351;28;20502;-72
2023/05/25 00:04:05;;;;;;;1999.90;999.90;;;;;;;20.83;43.02;102704.78;5070490;28;20125;-71
2023/05/25 00:06:31;;;;;;;1999.90;999.90;;;;;;;21.10;41.97;102705.03;5070038;28;20028;-70
2023/05/25 00:08:56;;;;;;;1999.90;999.90;;;;;;;21.58;41.09;102706.47;5050259;28;20025;-69
2023/05/25 00:11:23;;;;;;;1999.90;999.90;;;;;;;21.69;41.11;102703.50;5054306;28;20033;-69
2023/05/25 00:13:49;;;;;;;1999.90;999.90;;;;;;;21.92;40.62;102715.31;5051085;28;20431;-69
2023/05/25 00:16:15;;;;;;;1999.90;999.90;;;;;;;21.56;41.45;102712.78;5050212;28;20415;-70
2023/05/25 00:18:40;;;;;;;1999.90;999.90;;;;;;;21.59;41.26;102704.69;5051378;28;20021;-69
2023/05/25 00:21:06;;;;;;;1999.90;999.90;;;;;;;21.56;41.43;102712.78;5051449;28;20023;-70
2023/05/25 00:23:32;;;;;;;1999.90;999.90;;;;;;;21.79;40.56;102710.34;5052725;28;20039;-69
2023/05/25 00:25:58;;;;;;;1999.90;999.90;;;;;;;22.33;39.94;102710.59;5064943;28;20122;-70
2023/05/25 00:28:23;;;;;;;1999.90;999.90;;;;;;;22.26;40.76;102699.25;5070745;28;20551;-72
2023/05/25 00:30:48;;;;;;;1999.90;999.90;;;;;;;22.11;40.59;102707.69;5070123;28;20036;-70
2023/05/25 00:33:14;;;;;;;1999.90;999.90;;;;;;;22.42;40.19;102710.34;5054926;28;20051;-71
2023/05/25 00:35:41;;;;;;;1999.90;999.90;;;;;;;21.61;41.87;102706.41;5066671;28;20345;-71
2023/05/25 00:38:17;;;;;;;1999.90;999.90;;;;;;;22.29;40.59;102700.94;5064289;28;20119;-70
2023/05/25 00:40:43;;;;;;;1999.90;999.90;;;;;;;21.59;41.78;102707.34;5055554;28;20419;-71
2023/05/25 00:43:09;;;;;;;1999.90;999.90;;;;;;;21.43;42.76;102713.06;5049523;28;20035;-71
2023/05/25 00:45:35;;;;;;;1999.90;999.90;;;;;;;21.68;41.94;102712.44;5049811;28;20021;-71
2023/05/25 00:48:02;;;;;;;1999.90;999.90;;;;;;;21.54;42.46;102711.91;5050740;28;20349;-72
2023/05/25 00:50:41;;;;;;;1999.90;999.90;;;;;;;21.06;42.74;102716.66;5065081;28;20025;-71
2023/05/25 00:53:07;;;;;;;1999.90;999.90;;;;;;;21.27;42.62;102717.88;5065157;28;20028;-71
2023/05/25 00:55:56;;;;;;;1999.90;999.90;;;;;;;20.95;43.80;102721.31;5067142;28;20032;-71
2023/05/25 00:58:25;;;;;;;1999.90;999.90;;;;;;;20.98;43.23;102715.97;5070710;28;20055;-71
2023/05/25 01:00:55;;;;;;;1999.90;999.90;;;;;;;21.23;42.98;102716.22;5068521;28;20024;-71
2023/05/25 01:03:26;;;;;;;1999.90;999.90;;;;;;;20.57;44.36;102721.28;5070211;28;20043;-71
2023/05/25 01:05:53;;;;;;;1999.90;999.90;;;;;;;21.33;43.02;102717.72;5068201;28;20350;-71
2023/05/25 01:08:21;;;;;;;1999.90;999.90;;;;;;;21.52;42.55;102718.16;5069894;28;20028;-71
2023/05/25 01:10:48;;;;;;;1999.90;999.90;;;;;;;21.60;42.35;102727.72;5054654;28;20082;-71
2023/05/25 01:13:16;;;;;;;1999.90;999.90;;;;;;;21.25;43.53;102729.47;5064506;28;20025;-71
2023/05/25 01:15:42;;;;;;;1999.90;999.90;;;;;;;21.25;42.85;102734.78;5052322;28;20060;-71
2023/05/25 01:18:08;;;;;;;1999.90;999.90;;;;;;;21.47;42.42;102732.44;5048946;28;20510;-71
2023/05/25 01:20:34;;;;;;;1999.90;999.90;;;;;;;21.27;43.05;102732.97;5065596;28;20024;-71
2023/05/25 01:23:10;;;;;;;1999.90;999.90;;;;;;;21.35;43.05;102731.00;5048581;28;20116;-71
2023/05/25 01:25:41;;;;;;;1999.90;999.90;;;;;;;21.52;42.30;102731.44;5063960;28;20029;-71
2023/05/25 01:28:16;;;;;;;1999.90;999.90;;;;;;;21.58;42.23;102742.84;5067504;28;20024;-71
2023/05/25 01:30:46;;;;;;;1999.90;999.90;;;;;;;21.26;43.44;102741.84;5066361;28;20032;-72
2023/05/25 01:33:12;;;;;;;1999.90;999.90;;;;;;;21.41;42.42;102741.47;5063078;28;20051;-71
2023/05/25 01:35:40;;;;;;;1999.90;999.90;;;;;;;20.54;45.35;102741.72;5065197;28;20023;-72
2023/05/25 01:38:07;;;;;;;1999.90;999.90;;;;;;;21.27;43.36;102739.16;5052954;28;20118;-71
2023/05/25 01:40:32;;;;;;;1999.90;999.90;;;;;;;21.39;42.94;102748.63;5057662;28;20430;-71
2023/05/25 01:42:58;;;;;;;1999.90;999.90;;;;;;;20.44;44.73;102741.03;5068905;28;20017;-71
2023/05/25 01:45:23;;;;;;;1999.90;999.90;;;;;;;20.65;44.92;102745.03;5066513;28;20449;-71
2023/05/25 01:48:02;;;;;;;1999.90;999.90;;;;;;;20.25;45.94;102756.47;5067842;28;20039;-71
2023/05/25 01:50:56;;;;;;;1999.90;999.90;;;;;;;20.21;45.83;102749.47;5067090;28;20028;-71
2023/05/25 01:53:27;;;;;;;1999.90;999.90;;;;;;;21.05;44.23;102744.13;5070142;28;20031;-71
2023/05/25 01:56:07;;;;;;;1999.90;999.90;;;;;;;21.14;43.76;102749.25;5068324;28;20027;-70
2023/05/25 01:58:44;;;;;;;1999.90;999.90;;;;;;;21.36;43.03;102743.34;5058427;28;20242;-71
2023/05/25 02:01:13;;;;;;;1999.90;999.90;;;;;;;21.60;42.59;102751.69;5054922;28;20040;-71
2023/05/25 02:03:40;;;;;;;1999.90;999.90;;;;;;;21.45;42.33;102748.47;5056215;28;20036;-71
2023/05/25 02:06:07;;;;;;;1999.90;999.90;;;;;;;21.30;43.12;102752.38;5065776;28;20498;-71
2023/05/25 02:08:32;;;;;;;1999.90;999.90;;;;;;;21.55;42.96;102750.91;5066219;28;20041;-73
2023/05/25 02:10:57;;;;;;;1999.90;999.90;;;;;;;21.48;43.06;102748.38;5068599;28;20438;-71
2023/05/25 02:13:23;;;;;;;1999.90;999.90;;;;;;;21.74;42.24;102759.28;5067773;28;20047;-69
2023/05/25 02:15:48;;;;;;;1999.90;999.90;;;;;;;21.21;43.54;102759.72;5067985;28;20492;-71
2023/05/25 02:18:16;;;;;;;1999.90;999.90;;;;;;;21.43;43.38;102750.31;5063750;28;20063;-71
2023/05/25 02:20:42;;;;;;;1999.90;999.90;;;;;;;21.14;43.86;102754.56;5050956;28;20035;-71
2023/05/25 02:23:08;;;;;;;1999.90;999.90;;;;;;;21.08;44.19;102754.69;5048774;28;20427;-71
2023/05/25 02:25:33;;;;;;;1999.90;999.90;;;;;;;21.52;44.05;102750.06;5050204;28;20036;-72
2023/05/25 02:27:59;;;;;;;1999.90;999.90;;;;;;;21.16;44.33;102752.72;5048397;28;20024;-71
2023/05/25 02:30:25;;;;;;;1999.90;999.90;;;;;;;21.29;43.65;102757.72;5060077;28;20120;-71
2023/05/25 02:32:50;;;;;;;1999.90;999.90;;;;;;;21.77;42.43;102751.22;5066387;28;20498;-72
2023/05/25 02:35:16;;;;;;;1999.90;999.90;;;;;;;22.02;42.19;102754.06;5048785;28;20033;-71
2023/05/25 02:37:41;;;;;;;1999.90;999.90;;;;;;;21.95;41.96;102758.69;5058921;28;20043;-72
2023/05/25 02:40:09;;;;;;;1999.90;999.90;;;;;;;21.88;42.32;102766.91;5067183;28;20040;-71
2023/05/25 02:42:35;;;;;;;1999.90;999.90;;;;;;;22.16;41.81;102764.31;5056357;28;20055;-71
2023/05/25 02:45:00;;;;;;;1999.90;999.90;;;;;;;22.03;41.99;102761.16;5065158;28;20029;-71
2023/05/25 02:47:25;;;;;;;1999.90;999.90;;;;;;;21.85;42.23;102766.06;5047567;28;20502;-71
2023/05/25 02:49:51;;;;;;;1999.90;999.90;;;;;;;21.56;42.77;102755.34;5047502;28;20614;-71
2023/05/25 02:52:16;;;;;;;1999.90;999.90;;;;;;;21.65;42.25;102765.72;5051201;28;20033;-71
2023/05/25 02:54:42;;;;;;;1999.90;999.90;;;;;;;21.79;42.14;102755.59;5062302;28;20055;-70
2023/05/25 02:57:07;;;;;;;1999.90;999.90;;;;;;;21.74;41.98;102760.16;5063177;28;20076;-71
2023/05/25 02:59:33;;;;;;;1999.90;999.90;;;;;;;21.83;41.35;102762.56;5068292;28;20044;-71
2023/05/25 03:01:58;;;;;;;1999.90;999.90;;;;;;;22.07;40.54;102768.13;5071244;28;20064;-71
2023/05/25 03:04:24;;;;;;;1999.90;999.90;;;;;;;21.67;40.95;102769.22;5070604;28;20039;-71
2023/05/25 03:06:50;;;;;;;1999.90;999.90;;;;;;;21.04;43.01;102774.28;5067924;28;20464;-71
2023/05/25 03:09:15;;;;;;;1999.90;999.90;;;;;;;20.96;43.58;102769.13;5050904;28;20029;-71
2023/05/25 03:11:41;;;;;;;1999.90;999.90;;;;;;;21.13;43.19;102771.41;5070102;28;20025;-71
2023/05/25 03:14:08;;;;;;;1999.90;999.90;;;;;;;21.23;42.68;102771.19;5065006;28;20063;-71
2023/05/25 03:16:35;;;;;;;1999.90;999.90;;;;;;;21.09;42.83;102787.44;5061139;28;20110;-71
2023/05/25 03:19:01;;;;;;;1999.90;999.90;;;;;;;20.88;42.93;102779.06;5071189;28;20035;-72
2023/05/25 03:21:27;;;;;;;1999.90;999.90;;;;;;;21.34;42.46;102782.44;5070140;28;20166;-71
2023/05/25 03:23:52;;;;;;;1999.90;999.90;;;;;;;21.05;42.72;102786.66;5067177;28;20107;-72
2023/05/25 03:26:18;;;;;;;1999.90;999.90;;;;;;;21.19;42.47;102789.84;5067955;28;20517;-71
2023/05/25 03:28:43;;;;;;;1999.90;999.90;;;;;;;21.33;41.91;102780.69;5070358;28;20043;-71
2023/05/25 03:31:09;;;;;;;1999.90;999.90;;;;;;;21.35;41.48;102778.88;5070463;28;20059;-72
2023/05/25 03:33:35;;;;;;;1999.90;999.90;;;;;;;20.90;42.37;102781.72;5070774;28;20518;-71
2023/05/25 03:36:06;;;;;;;1999.90;999.90;;;;;;;20.72;43.06;102789.19;5070223;28;20028;-71
2023/05/25 03:38:37;;;;;;;1999.90;999.90;;;;;;;20.51;43.19;102791.34;5057212;28;20033;-71
2023/05/25 03:41:03;;;;;;;1999.90;999.90;;;;;;;20.45;43.44;102780.84;5051921;28;20025;-71
2023/05/25 03:43:28;;;;;;;1999.90;999.90;;;;;;;20.68;42.71;102776.88;5055060;28;20047;-71
2023/05/25 03:45:53;;;;;;;1999.90;999.90;;;;;;;20.79;42.01;102772.19;5050751;28;20170;-71
2023/05/25 03:48:19;;;;;;;1999.90;999.90;;;;;;;20.71;41.98;102771.47;5067679;28;20047;-71
2023/05/25 03:50:44;;;;;;;1999.90;999.90;;;;;;;20.67;42.34;102775.09;5049484;28;20055;-71
2023/05/25 03:53:10;;;;;;;1999.90;999.90;;;;;;;20.48;42.91;102775.50;5060696;28;20093;-71
2023/05/25 03:55:35;;;;;;;1999.90;999.90;;;;;;;20.64;42.09;102781.31;5069395;28;20039;-71
2023/05/25 03:58:00;;;;;;;1999.90;999.90;;;;;;;20.66;42.30;102789.25;5050475;28;20045;-71
2023/05/25 04:00:26;;;;;;;1999.90;999.90;;;;;;;20.41;43.04;102795.09;5050724;28;20029;-71
2023/05/25 04:02:51;;;;;;;1999.90;999.90;;;;;;;20.31;43.11;102796.19;5055006;28;20025;-71
2023/05/25 04:05:17;;;;;;;1999.90;999.90;;;;;;;20.57;42.83;102797.47;5068786;28;20029;-71
2023/05/25 04:07:43;;;;;;;1999.90;999.90;;;;;;;20.36;43.12;102804.97;5052714;28;20071;-71
2023/05/25 04:10:09;;;;;;;1999.90;999.90;;;;;;;20.33;43.30;102803.22;5070006;28;20510;-71
2023/05/25 04:12:35;;;;;;;1999.90;999.90;;;;;;;20.24;43.78;102805.19;5060801;28;20050;-71
2023/05/25 04:15:02;;;;;;;1999.90;999.90;;;;;;;19.88;44.72;102804.97;5066746;28;20079;-71
2023/05/25 04:17:27;;;;;;;1999.90;999.90;;;;;;;20.26;44.19;102811.34;5062183;28;20499;-71
2023/05/25 04:19:53;;;;;;;1999.90;999.90;;;;;;;20.09;44.96;102807.22;5070481;28;20024;-72
2023/05/25 04:22:18;;;;;;;1999.90;999.90;;;;;;;20.14;44.44;102808.03;5070524;28;20052;-71
2023/05/25 04:24:44;;;;;;;1999.90;999.90;;;;;;;20.14;44.55;102808.03;5055729;28;20086;-71
2023/05/25 04:27:10;;;;;;;1999.90;999.90;;;;;;;20.49;43.68;102802.91;5059875;28;20418;-71
2023/05/25 04:29:36;;;;;;;1999.90;999.90;;;;;;;20.55;43.28;102812.53;5069743;28;20032;-70
2023/05/25 04:32:01;;;;;;;1999.90;999.90;;;;;;;20.17;44.50;102813.25;5070118;28;20024;-71
2023/05/25 04:34:28;;;;;;;1999.90;999.90;;;;;;;20.21;44.77;102818.50;5070731;28;20131;-71
2023/05/25 04:36:55;;;;;;;1999.90;999.90;;;;;;;20.27;44.93;102818.41;5069082;28;20480;-70
2023/05/25 04:39:20;;;;;;;1999.90;999.90;;;;;;;20.41;44.45;102821.66;5061794;28;20017;-71
2023/05/25 04:41:47;;;;;;;1999.90;999.90;;;;;;;20.68;44.18;102830.00;5049332;28;20028;-71
2023/05/25 04:44:12;;;;;;;1999.90;999.90;;;;;;;21.39;44.32;102812.47;5050246;28;20048;-72
2023/05/25 04:46:39;;;;;;;1999.90;999.90;;;;;;;22.39;40.44;102814.31;5048828;28;20257;-71
2023/05/25 04:49:07;;;;;;;1999.90;999.90;;;;;;;23.48;41.90;102812.78;5060658;28;20028;-71
2023/05/25 04:51:32;;;;;;;1999.90;999.90;;;;;;;23.90;37.10;102822.06;5068786;28;20025;-71
2023/05/25 04:53:58;;;;;;;1999.90;999.90;;;;;;;22.82;39.13;102821.06;5068844;28;20020;-71
2023/05/25 04:56:25;;;;;;;1999.90;999.90;;;;;;;22.57;39.45;102825.34;5069923;28;20025;-72
2023/05/25 04:58:51;;;;;;;1999.90;999.90;;;;;;;22.41;40.14;102831.13;5067955;28;20098;-71
2023/05/25 05:01:18;;;;;;;1999.90;999.90;;;;;;;22.41;40.07;102831.13;5069162;28;20024;-72
2023/05/25 05:03:44;;;;;;;1999.90;999.90;;;;;;;22.05;40.83;102833.88;5069071;28;20480;-71
2023/05/25 05:06:09;;;;;;;1999.90;999.90;;;;;;;21.43;42.19;102846.06;5068418;28;20074;-72
2023/05/25 05:08:35;;;;;;;1999.90;999.90;;;;;;;21.05;43.54;102839.84;5069703;28;20107;-71
2023/05/25 05:11:00;;;;;;;1999.90;999.90;;;;;;;20.15;45.27;102852.25;5050767;28;20075;-72
2023/05/25 05:13:25;;;;;;;1999.90;999.90;;;;;;;20.63;44.73;102853.09;5057810;28;20028;-71
2023/05/25 05:15:51;;;;;;;1999.90;999.90;;;;;;;21.55;42.78;102844.03;5068329;28;20352;-72
2023/05/25 05:18:16;;;;;;;1999.90;999.90;;;;;;;20.91;43.92;102848.13;5056596;28;20027;-71
2023/05/25 05:20:42;;;;;;;1999.90;999.90;;;;;;;21.12;43.10;102854.72;5048702;28;20027;-72
2023/05/25 05:23:07;;;;;;;1999.90;999.90;;;;;;;21.07;44.15;102859.28;5048625;28;20036;-72
2023/05/25 05:25:32;;;;;;;1999.90;999.90;;;;;;;20.77;44.76;102856.38;5048574;28;20109;-72
2023/05/25 05:27:58;;;;;;;1999.90;999.90;;;;;;;20.96;44.00;102845.34;5050348;28;20499;-71
2023/05/25 05:30:23;;;;;;;1999.90;999.90;;;;;;;20.27;45.24;102856.44;5059172;28;20582;-71
2023/05/25 05:32:49;;;;;;;1999.90;999.90;;;;;;;20.55;45.47;102849.72;5063373;28;20572;-71
2023/05/25 05:35:14;;;;;;;1999.90;999.90;;;;;;;21.44;43.67;102850.44;5048956;28;20028;-71
2023/05/25 05:37:39;;;;;;;1999.90;999.90;;;;;;;20.61;44.62;102860.25;5048062;28;20503;-70
2023/05/25 05:40:06;;;;;;;1999.90;999.90;;;;;;;20.91;43.54;102863.16;5066346;28;20492;-72
2023/05/25 05:42:34;;;;;;;1999.90;999.90;;;;;;;20.26;45.71;102869.75;5065704;28;20519;-70
2023/05/25 05:44:59;;;;;;;1999.90;999.90;;;;;;;21.61;42.25;102855.41;5065145;28;20055;-71
2023/05/25 05:47:25;;;;;;;1999.90;999.90;;;;;;;20.80;43.85;102872.25;5067861;28;20480;-71
2023/05/25 05:49:50;;;;;;;1999.90;999.90;;;;;;;21.92;42.04;102865.25;5066488;28;20522;-71
2023/05/25 05:52:16;;;;;;;1999.90;999.90;;;;;;;21.89;41.29;102872.47;5060551;28;20032;-71
2023/05/25 05:54:41;;;;;;;1999.90;999.90;;;;;;;21.39;42.60;102872.75;5064457;28;20040;-71
2023/05/25 05:57:06;;;;;;;1999.90;999.90;;;;;;;21.02;42.60;102877.13;5068203;28;20028;-71
2023/05/25 05:59:33;;;;;;;1999.90;999.90;;;;;;;21.92;41.39;102875.03;5069634;28;20586;-71
2023/05/25 06:01:58;;;;;;;1999.90;999.90;;;;;;;21.50;41.32;102884.91;5069041;28;20032;-70
2023/05/25 06:04:27;;;;;;;1999.90;999.90;;;;;;;22.32;40.00;102880.16;5058444;28;20150;-71
2023/05/25 06:06:53;;;;;;;1999.90;999.90;;;;;;;22.48;38.99;102885.13;5047744;28;20033;-70
2023/05/25 06:09:18;;;;;;;1999.90;999.90;;;;;;;22.91;38.60;102889.22;5060853;28;20036;-71
2023/05/25 06:11:43;;;;;;;1999.90;999.90;;;;;;;22.51;39.02;102891.22;5063220;28;20411;-70
2023/05/25 06:14:10;;;;;;;1999.90;999.90;;;;;;;22.23;39.42;102896.41;5063533;28;20032;-70
2023/05/25 06:16:35;;;;;;;1999.90;999.90;;;;;;;23.01;38.34;102895.13;5067668;28;20024;-71
2023/05/25 06:19:00;;;;;;;1999.90;999.90;;;;;;;23.14;37.99;102896.53;5062784;28;20028;-70
2023/05/25 06:21:26;;;;;;;1999.90;999.90;;;;;;;23.11;38.09;102896.63;5048117;28;20025;-70
2023/05/25 06:23:51;;;;;;;1999.90;999.90;;;;;;;23.54;37.27;102889.09;5052244;28;20057;-70
2023/05/25 06:26:16;;;;;;;1999.90;999.90;;;;;;;24.03;36.31;102895.47;5069887;28;20028;-70
2023/05/25 06:28:42;;;;;;;1999.90;999.90;;;;;;;26.22;33.19;102891.47;5057131;28;20399;-70
2023/05/25 06:31:07;;;;;;;1999.90;999.90;;;;;;;28.65;30.01;102892.28;5065959;28;20170;-69
2023/05/25 06:33:33;;;;;;;1999.90;999.90;;;;;;;30.24;27.85;102885.78;5071342;28;20039;-69
2023/05/25 06:35:59;;;;;;;1999.90;999.90;;;;;;;31.11;25.93;102897.47;5055549;28;20028;-68
2023/05/25 06:38:28;;;;;;;1999.90;999.90;;;;;;;32.02;23.93;102890.50;5053630;28;20036;-69
2023/05/25 06:40:53;;;;;;;1999.90;999.90;;;;;;;30.77;26.22;102891.50;5051983;28;20040;-69
2023/05/25 06:43:19;;;;;;;1999.90;999.90;;;;;;;31.64;25.19;102897.56;5051656;28;20037;-69
2023/05/25 06:45:45;;;;;;;1999.90;999.90;;;;;;;31.69;25.05;102894.56;5052842;28;20025;-68
2023/05/25 06:48:10;;;;;;;1999.90;999.90;;;;;;;31.10;25.46;102899.28;5056700;28;20028;-68
2023/05/25 06:50:35;;;;;;;1999.90;999.90;;;;;;;29.96;26.69;102911.75;5068643;28;20032;-69
2023/05/25 06:53:01;;;;;;;1999.90;999.90;;;;;;;31.77;24.95;102905.72;5070766;28;20020;-69
2023/05/25 06:55:26;;;;;;;1999.90;999.90;;;;;;;31.84;25.11;102908.88;5058778;28;20037;-69
2023/05/25 06:57:51;;;;;;;1999.90;999.90;;;;;;;30.66;27.08;102915.63;5050390;28;20020;-68
2023/05/25 07:00:18;;;;;;;1999.90;999.90;;;;;;;32.72;24.22;102908.16;5050225;28;20051;-69
2023/05/25 07:02:43;;;;;;;1999.90;999.90;;;;;;;30.29;25.85;102916.03;5056165;28;20033;-70
2023/05/25 07:05:10;;;;;;;1999.90;999.90;;;;;;;30.66;25.54;102923.72;5058531;28;20049;-69
2023/05/25 07:07:35;;;;;;;1999.90;999.90;;;;;;;29.43;27.19;102924.72;5056525;28;20645;-68
2023/05/25 07:10:03;;;;;;;1999.90;999.90;;;;;;;29.43;26.52;102935.50;5071037;28;20044;-69
2023/05/25 07:12:28;;;;;;;1999.90;999.90;;;;;;;29.92;27.59;102929.97;5059561;28;20077;-70
2023/05/25 07:14:53;;;;;;;1999.90;999.90;;;;;;;32.22;25.21;102922.44;5063493;28;20032;-70
2023/05/25 07:17:20;;;;;;;13.88;13.07;;;;;;;30.32;26.98;102934.72;5051507;28;20114;-69
2023/05/25 07:19:47;;;;;;;1503.55;753.25;;;;;;;28.53;28.06;102951.09;5052738;28;20032;-70
2023/05/25 07:22:14;;;;;;;1999.90;999.90;;;;;;;29.69;26.50;102942.06;5060540;28;20020;-69
2023/05/25 07:24:39;;;;;;;1999.90;999.90;;;;;;;29.37;27.18;102950.16;5057911;28;20119;-70
2023/05/25 07:27:05;;;;;;;1999.90;999.90;;;;;;;28.67;28.76;102946.84;5057688;28;20119;-69
2023/05/25 07:29:31;;;;;;;1999.90;999.90;;;;;;;28.53;28.45;102950.25;5065165;28;20494;-69
2023/05/25 07:31:57;;;;;;;1999.90;999.90;;;;;;;27.00;30.29;102944.38;5062644;28;20036;-69
2023/05/25 07:34:22;;;;;;;1999.90;999.90;;;;;;;27.93;29.50;102947.00;5069760;28;20032;-69
2023/05/25 07:36:47;;;;;;;1999.90;999.90;;;;;;;27.91;30.35;102948.91;5067724;28;20024;-68
2023/05/25 07:39:13;;;;;;;1999.90;999.90;;;;;;;27.07;30.65;102945.81;5058066;28;20099;-69
2023/05/25 07:41:38;;;;;;;1999.90;999.90;;;;;;;25.64;33.04;102951.06;5063468;28;20032;-68
2023/05/25 07:44:04;;;;;;;1999.90;999.90;;;;;;;26.89;32.33;102947.53;5069489;28;20438;-68
2023/05/25 07:46:29;;;;;;;1999.90;999.90;;;;;;;28.87;28.31;102949.31;5065353;28;20410;-68
2023/05/25 07:48:57;;;;;;;1999.90;999.90;;;;;;;28.53;28.51;102944.88;5065256;28;20111;-68
2023/05/25 07:51:24;;;;;;;1999.90;999.90;;;;;;;29.52;28.82;102956.50;5049934;28;20388;-69
2023/05/25 07:53:51;;;;;;;1999.90;999.90;;;;;;;28.38;29.19;102943.88;5068422;28;20032;-69
2023/05/25 07:56:16;;;;;;;1999.90;999.90;;;;;;;29.18;28.37;102958.41;5067011;28;20036;-69
2023/05/25 07:58:42;;;;;;;1999.90;999.90;;;;;;;28.63;28.62;102964.06;5050003;28;20056;-69
2023/05/25 08:01:07;;;;;;;1999.90;999.90;;;;;;;28.56;28.35;102963.53;5051830;28;20546;-69
2023/05/25 08:03:32;;;;;;;1999.90;999.90;;;;;;;28.66;28.60;102966.63;5060858;28;20032;-70
2023/05/25 08:05:58;;;;;;;1999.90;999.90;;;;;;;28.12;28.99;102966.72;5068756;28;20036;-69
2023/05/25 08:08:23;;;;;;;1999.90;999.90;;;;;;;29.06;29.08;102975.25;5052284;28;20139;-69
2023/05/25 08:10:49;;;;;;;1999.90;999.90;;;;;;;29.59;28.88;102970.47;5062841;28;20098;-69
2023/05/25 08:13:14;;;;;;;1999.90;999.90;;;;;;;29.89;27.21;102962.47;5052567;28;20025;-69
2023/05/25 08:15:40;;;;;;;1999.90;999.90;;;;;;;31.69;25.22;102964.81;5073495;28;20028;-69
2023/05/25 08:18:05;;;;;;;1999.90;999.90;;;;;;;31.67;25.13;102975.75;5065794;28;20480;-69
2023/05/25 08:20:31;;;;;;;1999.90;999.90;;;;;;;30.00;26.49;102974.44;5069302;28;20017;-69
2023/05/25 08:22:58;;;;;;;1999.90;999.90;;;;;;;29.93;27.46;102966.72;5068038;28;20071;-69
2023/05/25 08:25:23;;;;;;;1999.90;999.90;;;;;;;31.02;27.69;102970.91;5058289;28;20480;-69
2023/05/25 08:27:48;;;;;;;1999.90;999.90;;;;;;;31.16;25.90;102970.94;5068502;28;20044;-69
2023/05/25 08:30:14;;;;;;;1999.90;999.90;;;;;;;33.73;22.19;102977.47;5087941;28;20790;-69
2023/05/25 08:32:39;;;;;;;16.33;15.27;;;;;;;32.45;22.72;102979.47;5082136;28;20024;-69
2023/05/25 08:35:05;;;;;;;1999.90;999.90;;;;;;;34.55;21.33;102974.78;5065041;28;20029;-69
2023/05/25 08:37:31;;;;;;;15.02;14.13;;;;;;;32.77;22.50;102979.09;5067839;28;20020;-69
2023/05/25 08:39:59;;;;;;;14.63;13.85;;;;;;;30.92;24.14;102974.19;5057153;28;20037;-69
2023/05/25 08:42:25;;;;;;;1503.43;753.22;;;;;;;30.62;25.06;102977.88;5059190;28;20045;-69
2023/05/25 08:44:50;;;;;;;1999.90;999.90;;;;;;;27.98;28.39;102992.44;5049413;28;20352;-69
2023/05/25 08:47:16;;;;;;;1999.90;999.90;;;;;;;27.86;30.08;102993.97;5056445;28;20031;-70
2023/05/25 08:49:43;;;;;;;1999.90;999.90;;;;;;;26.00;31.76;102997.81;5049728;28;20044;-69
2023/05/25 08:52:16;;;;;;;1999.90;999.90;;;;;;;27.32;30.55;102987.59;5053282;28;20136;-69
2023/05/25 08:54:43;;;;;;;1999.90;999.90;;;;;;;27.53;29.32;102991.97;5058226;28;20086;-69
2023/05/25 08:57:19;;;;;;;1999.90;999.90;;;;;;;26.74;29.68;102992.03;5067559;28;20063;-70
2023/05/25 08:59:53;;;;;;;1999.90;999.90;;;;;;;27.86;30.03;102993.97;5068797;28;20070;-69
2023/05/25 09:02:53;;;;;;;1999.90;999.90;;;;;;;27.64;29.78;102998.63;5064707;28;20056;-69
2023/05/25 09:05:19;;;;;;;1999.90;999.90;;;;;;;27.99;28.95;102993.34;5064843;28;20032;-70
2023/05/25 09:07:45;;;;;;;1999.90;999.90;;;;;;;28.30;29.59;102991.78;5070943;28;20020;-69
2023/05/25 09:10:11;;;;;;;1999.90;999.90;;;;;;;26.97;30.20;102993.69;5068686;28;20025;-70
2023/05/25 09:12:37;;;;;;;1999.90;999.90;;;;;;;27.61;29.35;102994.28;5074942;28;20080;-70
2023/05/25 09:15:03;;;;;;;1999.90;999.90;;;;;;;27.76;28.39;102993.50;5080107;28;20036;-70
2023/05/25 09:17:29;;;;;;;1999.90;999.90;;;;;;;28.19;29.34;103001.28;5069447;28;20032;-69
2023/05/25 09:19:54;;;;;;;1999.90;999.90;;;;;;;27.47;29.74;102992.25;5052627;28;20039;-70
2023/05/25 09:22:20;;;;;;;1999.90;999.90;;;;;;;27.71;30.60;103000.06;5061023;28;20025;-69
2023/05/25 09:24:46;;;;;;;1999.90;999.90;;;;;;;27.68;30.01;102994.84;5064273;28;20077;-69
2023/05/25 09:27:18;;;;;;;1999.90;999.90;;;;;;;27.31;30.06;102991.22;5070429;28;20059;-69
2023/05/25 09:29:48;;;;;;;;;;;;;;;26.92;29.26;102996.53;5082388;28;20032;-69
2023/05/25 09:32:15;;;;;;;1999.90;999.90;;;;;;;26.35;30.71;102991.00;5055793;28;19916;-70
2023/05/25 09:34:42;;;;;;;1999.90;999.90;;;;;;;27.22;29.24;102992.53;5047834;28;20594;-69
2023/05/25 09:37:12;;;;;;;1999.90;999.90;;;;;;;28.48;29.29;102987.28;5066772;28;20064;-69
2023/05/25 09:39:39;;;;;;;1999.90;999.90;;;;;;;28.93;27.16;102992.06;5050427;28;20052;-69
2023/05/25 09:42:05;;;;;;;1999.90;999.90;;;;;;;29.37;26.52;102989.69;5067154;28;20027;-70
2023/05/25 09:44:30;;;;;;;1999.90;999.90;;;;;;;31.43;24.86;102986.31;5081610;28;20035;-69
2023/05/25 09:46:56;;;;;;;1999.90;999.90;;;;;;;31.07;24.49;102979.63;5046846;28;20036;-69
2023/05/25 09:49:21;;;;;;;14.15;13.27;;;;;;;29.45;25.86;102999.06;5066269;28;20033;-70
2023/05/25 09:51:49;;;;;;;1999.90;999.90;;;;;;;28.88;26.47;102987.84;5060071;28;20028;-69
2023/05/25 09:54:15;;;;;;;1999.90;999.90;;;;;;;29.48;26.42;102987.25;5051265;28;20031;-69
2023/05/25 09:56:40;;;;;;;1999.90;999.90;;;;;;;29.15;27.43;102990.84;5063953;28;20029;-70
2023/05/25 09:59:06;;;;;;;1999.90;999.90;;;;;;;29.19;27.60;102991.56;5081107;28;20044;-69
2023/05/25 10:01:33;;;;;;;1999.90;999.90;;;;;;;30.29;24.83;102987.06;5064997;28;20033;-68
2023/05/25 10:04:00;;;;;;;1999.90;999.90;;;;;;;31.22;23.26;102984.03;5042592;28;20025;-69
2023/05/25 10:06:26;;;;;;;1999.90;999.90;;;;;;;30.99;24.16;102985.47;5068021;28;20028;-69
2023/05/25 10:08:55;;;;;;;1999.90;999.90;;;;;;;31.90;22.28;102995.81;5071317;28;20469;-69
2023/05/25 10:11:21;;;;;;;1999.90;999.90;;;;;;;31.04;22.75;102990.63;5052092;28;20420;-69
2023/05/25 10:13:49;;;;;;;1999.90;999.90;;;;;;;29.54;23.75;102986.91;5062848;28;20036;-69
2023/05/25 10:16:17;;;;;;;1999.90;999.90;;;;;;;30.85;21.83;102980.97;5066626;28;20016;-68
2023/05/25 10:19:00;;;;;;;1999.90;999.90;;;;;;;33.06;19.80;102985.09;5064490;28;20036;-68
2023/05/25 10:21:27;;;;;;;13.85;13.05;;;;;;;32.43;20.85;102981.44;5064375;28;20114;-69
2023/05/25 10:23:56;;;;;;;14.50;13.70;;;;;;;30.61;22.30;102978.84;5049059;28;20066;-69
2023/05/25 10:26:25;;;;;;;1999.90;999.90;;;;;;;30.91;22.02;102977.88;5052878;28;20255;-69
2023/05/25 10:28:55;;;;;;;1999.90;999.90;;;;;;;30.22;22.46;102982.97;5052164;28;20029;-69
2023/05/25 10:31:20;;;;;;;1999.90;999.90;;;;;;;29.22;24.30;102992.28;5048589;28;20025;-68
2023/05/25 10:33:47;;;;;;;1999.90;999.90;;;;;;;28.82;25.13;102988.19;5048490;28;20033;-69
2023/05/25 10:36:13;;;;;;;1999.90;999.90;;;;;;;27.19;27.47;102987.28;5047773;28;20025;-69
2023/05/25 10:38:39;;;;;;;1999.90;999.90;;;;;;;26.92;28.41;102991.19;5047813;28;20393;-68
2023/05/25 10:41:07;;;;;;;1999.90;999.90;;;;;;;26.85;30.18;102995.09;5047941;28;20025;-68
2023/05/25 10:43:33;;;;;;;1999.90;999.90;;;;;;;28.09;28.25;102987.44;5047190;28;20431;-69
2023/05/25 10:45:58;;;;;;;1999.90;999.90;;;;;;;26.62;30.04;102992.53;5047339;28;20029;-69